Time;durP1;ratioP1;P1;durP2;ratioP2;P2;SDS_P1;SDS_P2;PMS_P1;PMS_P2;Temp;Humidity;BMP_temperature;BMP_pressure;BME280_temperature;BME280_humidity;BME280_pressure;Samples;Min_cycle;Max_cycle;Signal;HPM_P1;HPM_P2
2023/06/04 00:02:23;;;;;;;3.13;2.40;;;;;;;;;;5038214;28;20462;-82
2023/06/04 00:04:52;;;;;;;6.37;2.57;;;;;;;;;;5039388;28;20470;-82
2023/06/04 00:07:19;;;;;;;4.63;2.70;;;;;;;;;;5039715;28;20479;-83
2023/06/04 00:09:48;;;;;;;4.60;3.03;;;;;;;;;;5038270;28;20576;-82
2023/06/04 00:12:15;;;;;;;6.47;2.30;;;;;;;;;;5039526;28;20455;-81
2023/06/04 00:14:43;;;;;;;3.80;2.70;;;;;;;;;;5040178;28;20516;-82
2023/06/04 00:17:13;;;;;;;5.47;2.90;;;;;;;;;;5041505;28;20527;-82
2023/06/04 00:19:41;;;;;;;5.10;2.87;;;;;;;;;;5045925;28;20470;-82
2023/06/04 00:22:12;;;;;;;8.70;3.13;;;;;;;;;;5043971;28;20487;-82
2023/06/04 00:24:41;;;;;;;4.20;2.77;;;;;;;;;;5043245;28;20439;-81
2023/06/04 00:27:11;;;;;;;5.07;2.63;;;;;;;;;;5044879;28;20470;-82
2023/06/04 00:29:38;;;;;;;3.80;2.30;;;;;;;;;;5045026;28;20479;-83
2023/06/04 00:32:05;;;;;;;3.60;2.30;;;;;;;;;;5044215;28;20461;-81
2023/06/04 00:34:33;;;;;;;4.00;2.23;;;;;;;;;;5042205;28;20486;-81
2023/06/04 00:37:06;;;;;;;4.30;2.17;;;;;;;;;;5042259;28;20461;-81
2023/06/04 00:39:35;;;;;;;5.23;2.07;;;;;;;;;;5036872;28;20819;-81
2023/06/04 00:42:02;;;;;;;4.63;1.80;;;;;;;;;;5035528;28;20522;-83
2023/06/04 00:44:30;;;;;;;4.60;2.30;;;;;;;;;;5038352;28;20454;-81
2023/06/04 00:46:58;;;;;;;2.93;1.90;;;;;;;;;;5037927;28;20522;-81
2023/06/04 00:49:26;;;;;;;3.03;1.60;;;;;;;;;;5047664;28;20482;-82
2023/06/04 00:51:54;;;;;;;3.53;1.80;;;;;;;;;;5048544;28;20459;-82
2023/06/04 00:54:22;;;;;;;2.90;2.00;;;;;;;;;;5045480;28;20489;-83
2023/06/04 00:56:51;;;;;;;2.93;1.97;;;;;;;;;;5045145;28;20473;-82
2023/06/04 00:59:18;;;;;;;3.53;2.00;;;;;;;;;;5041218;28;20458;-83
2023/06/04 01:01:47;;;;;;;5.47;1.90;;;;;;;;;;5041766;28;20531;-81
2023/06/04 01:04:18;;;;;;;7.13;2.83;;;;;;;;;;5043167;28;20525;-81
2023/06/04 01:06:46;;;;;;;2.63;1.43;;;;;;;;;;5038327;28;20466;-82
2023/06/04 01:09:14;;;;;;;3.87;2.23;;;;;;;;;;5038026;28;20470;-81
2023/06/04 01:11:42;;;;;;;4.07;2.10;;;;;;;;;;5038579;28;20446;-81
2023/06/04 01:14:11;;;;;;;4.40;2.17;;;;;;;;;;5042409;28;20693;-82
2023/06/04 01:16:41;;;;;;;2.80;1.70;;;;;;;;;;5042771;28;20458;-82
2023/06/04 01:19:21;;;;;;;4.13;2.30;;;;;;;;;;5048957;28;20474;-81
2023/06/04 01:21:51;;;;;;;3.23;1.87;;;;;;;;;;5051422;28;20556;-81
2023/06/04 01:24:20;;;;;;;2.70;1.50;;;;;;;;;;5045393;28;20455;-81
2023/06/04 01:26:48;;;;;;;3.03;1.63;;;;;;;;;;5045218;28;20462;-81
2023/06/04 01:29:17;;;;;;;5.13;2.13;;;;;;;;;;5048939;28;20537;-82
2023/06/04 01:31:44;;;;;;;3.50;2.13;;;;;;;;;;5044708;28;20466;-80
2023/06/04 01:34:12;;;;;;;3.50;1.77;;;;;;;;;;5047110;28;20794;-82
2023/06/04 01:36:39;;;;;;;3.73;2.20;;;;;;;;;;5043476;28;20463;-82
2023/06/04 01:39:06;;;;;;;4.70;2.47;;;;;;;;;;5043778;28;20469;-82
2023/06/04 01:41:34;;;;;;;3.07;2.10;;;;;;;;;;5044509;28;20475;-81
2023/06/04 01:44:01;;;;;;;5.33;2.40;;;;;;;;;;5046570;28;20469;-82
2023/06/04 01:46:30;;;;;;;5.30;1.63;;;;;;;;;;5048896;28;20483;-82
2023/06/04 01:48:58;;;;;;;3.60;2.03;;;;;;;;;;5045070;28;20454;-83
2023/06/04 01:51:25;;;;;;;8.33;3.40;;;;;;;;;;5050411;28;20490;-82
2023/06/04 01:53:53;;;;;;;3.60;2.20;;;;;;;;;;5044080;28;20463;-82
2023/06/04 01:56:21;;;;;;;2.50;1.70;;;;;;;;;;5043178;28;20466;-82
2023/06/04 01:58:48;;;;;;;3.60;1.90;;;;;;;;;;5044104;28;20471;-83
2023/06/04 02:01:16;;;;;;;10.53;3.37;;;;;;;;;;5042481;28;20494;-82
2023/06/04 02:03:45;;;;;;;5.03;3.13;;;;;;;;;;5043159;28;20490;-82
2023/06/04 02:06:13;;;;;;;6.83;2.50;;;;;;;;;;5046484;28;20694;-82
2023/06/04 02:08:42;;;;;;;3.10;1.80;;;;;;;;;;5050352;28;20442;-81
2023/06/04 02:11:09;;;;;;;3.20;1.90;;;;;;;;;;5046466;28;20558;-81
2023/06/04 02:13:39;;;;;;;3.40;1.73;;;;;;;;;;5049792;28;20459;-83
2023/06/04 02:16:07;;;;;;;3.30;1.77;;;;;;;;;;5050682;28;20451;-80
2023/06/04 02:18:34;;;;;;;6.43;2.57;;;;;;;;;;5050524;28;20478;-83
2023/06/04 02:21:03;;;;;;;6.10;2.60;;;;;;;;;;5050009;28;20489;-81
2023/06/04 02:23:30;;;;;;;4.77;2.83;;;;;;;;;;5045755;28;20459;-81
2023/06/04 02:25:58;;;;;;;4.67;2.00;;;;;;;;;;5041529;28;20459;-81
2023/06/04 02:28:30;;;;;;;3.43;1.63;;;;;;;;;;5044638;28;20473;-81
2023/06/04 02:30:58;;;;;;;2.77;1.80;;;;;;;;;;5044314;28;20486;-81
2023/06/04 02:33:25;;;;;;;3.73;2.10;;;;;;;;;;5052049;28;20454;-82
2023/06/04 02:35:52;;;;;;;4.07;2.00;;;;;;;;;;5051891;28;20490;-82
2023/06/04 02:38:21;;;;;;;4.07;2.40;;;;;;;;;;5053373;28;20511;-81
2023/06/04 02:40:49;;;;;;;4.10;2.23;;;;;;;;;;5054258;28;20443;-82
2023/06/04 02:43:16;;;;;;;6.30;2.73;;;;;;;;;;5052300;28;20684;-81
2023/06/04 02:45:43;;;;;;;3.00;1.83;;;;;;;;;;5050242;28;20482;-82
2023/06/04 02:48:11;;;;;;;2.77;1.57;;;;;;;;;;5052965;28;20450;-80
2023/06/04 02:50:39;;;;;;;3.37;2.10;;;;;;;;;;5056391;28;20547;-82
2023/06/04 02:53:06;;;;;;;3.10;2.07;;;;;;;;;;5051221;28;20455;-82
2023/06/04 02:55:35;;;;;;;3.40;1.90;;;;;;;;;;5055808;28;20483;-82
2023/06/04 02:58:03;;;;;;;4.13;2.07;;;;;;;;;;5054977;28;20532;-82
2023/06/04 03:00:30;;;;;;;2.90;2.00;;;;;;;;;;5056440;28;20458;-81
2023/06/04 03:03:01;;;;;;;4.13;2.50;;;;;;;;;;5055059;28;20457;-82
2023/06/04 03:05:30;;;;;;;3.10;2.20;;;;;;;;;;5054024;28;20435;-80
2023/06/04 03:07:59;;;;;;;4.37;2.63;;;;;;;;;;5054309;28;20489;-83
2023/06/04 03:10:26;;;;;;;7.60;3.07;;;;;;;;;;5053293;28;20466;-83
2023/06/04 03:12:55;;;;;;;4.90;3.20;;;;;;;;;;5053138;28;20510;-81
2023/06/04 03:15:22;;;;;;;4.87;2.80;;;;;;;;;;5053198;28;20513;-82
2023/06/04 03:17:51;;;;;;;10.20;4.13;;;;;;;;;;5049886;28;20443;-82
2023/06/04 03:20:18;;;;;;;5.70;2.10;;;;;;;;;;5051177;28;20478;-82
2023/06/04 03:22:47;;;;;;;5.87;2.60;;;;;;;;;;5051372;28;20782;-81
2023/06/04 03:25:14;;;;;;;4.73;2.23;;;;;;;;;;5051863;28;20447;-82
2023/06/04 03:27:42;;;;;;;5.27;2.57;;;;;;;;;;5048259;28;20813;-82
2023/06/04 03:30:11;;;;;;;4.03;1.83;;;;;;;;;;5043891;28;20486;-82
2023/06/04 03:32:39;;;;;;;2.93;1.50;;;;;;;;;;5051507;28;20454;-82
2023/06/04 03:35:07;;;;;;;4.40;1.80;;;;;;;;;;5049473;28;20447;-81
2023/06/04 03:37:34;;;;;;;4.67;1.93;;;;;;;;;;5045006;28;20447;-83
2023/06/04 03:40:05;;;;;;;5.57;2.67;;;;;;;;;;5041333;28;20462;-82
2023/06/04 03:42:33;;;;;;;3.83;2.33;;;;;;;;;;5037816;28;20909;-83
2023/06/04 03:45:00;;;;;;;2.83;1.87;;;;;;;;;;5038268;28;20830;-81
2023/06/04 03:47:29;;;;;;;3.87;1.63;;;;;;;;;;5019700;28;20436;-83
2023/06/04 03:49:56;;;;;;;4.53;2.00;;;;;;;;;;5018822;28;20804;-81
2023/06/04 03:52:23;;;;;;;4.83;1.50;;;;;;;;;;5017552;28;20459;-81
2023/06/04 03:54:51;;;;;;;2.73;1.37;;;;;;;;;;5018408;28;20571;-81
2023/06/04 03:57:18;;;;;;;3.37;1.73;;;;;;;;;;5020052;28;20463;-81
2023/06/04 03:59:45;;;;;;;10.40;1.93;;;;;;;;;;5020827;28;20464;-80
2023/06/04 04:02:16;;;;;;;4.63;2.33;;;;;;;;;;5021385;28;20468;-82
2023/06/04 04:04:46;;;;;;;2.97;2.00;;;;;;;;;;5022265;28;20459;-80
2023/06/04 04:07:17;;;;;;;3.10;1.67;;;;;;;;;;5021992;28;20456;-83
2023/06/04 04:09:44;;;;;;;2.97;2.10;;;;;;;;;;5019455;28;20478;-81
2023/06/04 04:12:11;;;;;;;3.73;2.23;;;;;;;;;;5021073;28;20487;-81
2023/06/04 04:14:39;;;;;;;3.67;1.77;;;;;;;;;;5019491;28;20466;-81
2023/06/04 04:17:06;;;;;;;3.40;2.27;;;;;;;;;;5021299;28;20927;-83
2023/06/04 04:19:33;;;;;;;3.27;1.60;;;;;;;;;;5021781;28;20490;-81
2023/06/04 04:22:06;;;;;;;4.70;1.87;;;;;;;;;;5026656;28;20443;-80
2023/06/04 04:24:36;;;;;;;3.20;1.57;;;;;;;;;;5027318;28;20570;-81
2023/06/04 04:27:04;;;;;;;4.90;1.73;;;;;;;;;;5023050;28;20455;-81
2023/06/04 04:29:32;;;;;;;5.73;1.97;;;;;;;;;;5023301;28;20468;-80
2023/06/04 04:32:01;;;;;;;3.07;1.80;;;;;;;;;;5023309;28;20484;-80
2023/06/04 04:34:29;;;;;;;3.50;1.93;;;;;;;;;;5022786;28;20535;-81
2023/06/04 04:36:56;;;;;;;3.60;1.67;;;;;;;;;;5023636;28;20471;-81
2023/06/04 04:39:25;;;;;;;3.03;1.57;;;;;;;;;;5020085;28;20451;-81
2023/06/04 04:41:53;;;;;;;4.33;1.60;;;;;;;;;;5019632;28;20474;-81
2023/06/04 04:44:20;;;;;;;2.97;1.60;;;;;;;;;;5019047;28;20459;-81
2023/06/04 04:46:47;;;;;;;3.07;1.30;;;;;;;;;;5033795;28;20509;-82
2023/06/04 04:49:15;;;;;;;5.00;2.07;;;;;;;;;;5048458;28;20473;-83
2023/06/04 04:51:43;;;;;;;5.00;2.23;;;;;;;;;;5050746;28;20498;-81
2023/06/04 04:54:11;;;;;;;3.93;1.70;;;;;;;;;;5050220;28;20529;-82
2023/06/04 04:56:39;;;;;;;3.30;1.93;;;;;;;;;;5048611;28;20521;-83
2023/06/04 04:59:07;;;;;;;2.70;1.60;;;;;;;;;;5044677;28;20458;-84
2023/06/04 05:01:40;;;;;;;3.03;1.70;;;;;;;;;;5044642;28;20458;-83
2023/06/04 05:04:15;;;;;;;3.60;1.30;;;;;;;;;;5045115;28;20462;-82
2023/06/04 05:06:43;;;;;;;2.90;1.70;;;;;;;;;;5045856;28;20517;-81
2023/06/04 05:09:10;;;;;;;3.87;2.13;;;;;;;;;;5051485;28;20462;-81
2023/06/04 05:11:40;;;;;;;18.60;5.70;;;;;;;;;;5050159;28;20752;-80
2023/06/04 05:14:27;;;;;;;3.47;2.50;;;;;;;;;;5049251;28;20466;-81
2023/06/04 05:16:56;;;;;;;4.73;1.60;;;;;;;;;;5081976;28;20513;-82
2023/06/04 05:19:24;;;;;;;4.33;1.70;;;;;;;;;;5085684;28;20469;-81
2023/06/04 05:21:54;;;;;;;3.60;1.60;;;;;;;;;;5087770;28;20444;-81
2023/06/04 05:24:22;;;;;;;4.17;1.60;;;;;;;;;;5085227;28;20634;-82
2023/06/04 05:26:50;;;;;;;4.40;1.50;;;;;;;;;;5084690;28;20452;-82
2023/06/04 05:29:28;;;;;;;3.73;1.53;;;;;;;;;;5088952;28;20528;-81
2023/06/04 05:31:55;;;;;;;3.50;1.97;;;;;;;;;;5089403;28;20477;-82
2023/06/04 05:34:23;;;;;;;4.10;1.67;;;;;;;;;;5087508;28;20467;-81
2023/06/04 05:36:50;;;;;;;2.70;1.47;;;;;;;;;;5089186;28;20460;-83
2023/06/04 05:39:18;;;;;;;3.53;1.10;;;;;;;;;;5083933;28;20581;-83
2023/06/04 05:41:46;;;;;;;3.30;1.43;;;;;;;;;;5083892;28;20476;-82
2023/06/04 05:44:15;;;;;;;2.53;1.33;;;;;;;;;;5086012;28;20518;-82
2023/06/04 05:46:43;;;;;;;5.37;1.50;;;;;;;;;;5087806;28;20854;-82
2023/06/04 05:49:10;;;;;;;2.90;1.20;;;;;;;;;;5084045;28;20460;-83
2023/06/04 05:51:38;;;;;;;3.20;1.20;;;;;;;;;;5082835;28;20492;-83
2023/06/04 05:54:05;;;;;;;2.93;1.20;;;;;;;;;;5081838;28;20727;-82
2023/06/04 05:56:33;;;;;;;2.97;2.17;;;;;;;;;;5082631;28;20488;-81
2023/06/04 05:59:00;;;;;;;2.70;1.43;;;;;;;;;;5090837;28;20473;-83
2023/06/04 06:01:31;;;;;;;2.87;1.20;;;;;;;;;;5096843;28;20683;-84
2023/06/04 06:03:59;;;;;;;3.87;1.27;;;;;;;;;;5092646;28;20446;-79
2023/06/04 06:06:26;;;;;;;1.90;1.03;;;;;;;;;;5089209;28;20482;-83
2023/06/04 06:08:58;;;;;;;2.17;1.00;;;;;;;;;;5087798;28;20448;-81
2023/06/04 06:11:26;;;;;;;2.23;1.20;;;;;;;;;;5085139;28;20654;-81
2023/06/04 06:13:54;;;;;;;2.53;1.20;;;;;;;;;;5085598;28;20460;-80
2023/06/04 06:16:21;;;;;;;1.97;0.97;;;;;;;;;;5084050;28;20547;-82
2023/06/04 06:18:50;;;;;;;2.27;1.20;;;;;;;;;;5088496;28;20491;-81
2023/06/04 06:21:18;;;;;;;3.77;1.23;;;;;;;;;;5087918;28;20535;-82
2023/06/04 06:23:45;;;;;;;3.47;1.40;;;;;;;;;;5086954;28;20450;-81
2023/06/04 06:26:13;;;;;;;2.50;1.50;;;;;;;;;;5086040;28;20523;-82
2023/06/04 06:28:41;;;;;;;2.13;1.20;;;;;;;;;;5088991;28;20519;-81
2023/06/04 06:31:09;;;;;;;2.20;1.20;;;;;;;;;;5089986;28;20497;-81
2023/06/04 06:33:40;;;;;;;3.27;1.10;;;;;;;;;;5082243;28;20476;-80
2023/06/04 06:36:09;;;;;;;2.23;1.23;;;;;;;;;;5083551;28;20801;-81
2023/06/04 06:38:36;;;;;;;3.60;1.20;;;;;;;;;;5089334;28;20449;-80
2023/06/04 06:41:04;;;;;;;3.20;1.43;;;;;;;;;;5090071;28;20457;-81
2023/06/04 06:43:31;;;;;;;2.20;0.90;;;;;;;;;;5088918;28;20445;-82
2023/06/04 06:45:59;;;;;;;6.90;1.10;;;;;;;;;;5088867;28;20465;-82
2023/06/04 06:48:26;;;;;;;2.33;1.30;;;;;;;;;;5085959;28;20868;-82
2023/06/04 06:50:54;;;;;;;3.90;1.50;;;;;;;;;;5084121;28;20705;-84
2023/06/04 06:53:22;;;;;;;2.83;1.00;;;;;;;;;;5083649;28;20449;-82
2023/06/04 06:55:50;;;;;;;3.13;1.20;;;;;;;;;;5085209;28;20507;-81
2023/06/04 06:58:17;;;;;;;4.10;1.70;;;;;;;;;;5083816;28;20457;-81
2023/06/04 07:00:45;;;;;;;2.47;1.00;;;;;;;;;;5084356;28;20468;-82
2023/06/04 07:03:12;;;;;;;2.90;0.90;;;;;;;;;;5082761;28;20748;-81
2023/06/04 07:05:39;;;;;;;2.57;0.87;;;;;;;;;;5082912;28;20449;-82
2023/06/04 07:08:07;;;;;;;3.00;1.07;;;;;;;;;;5083923;28;20479;-82
2023/06/04 07:10:35;;;;;;;2.17;1.00;;;;;;;;;;5084506;28;20539;-80
2023/06/04 07:13:03;;;;;;;3.00;1.00;;;;;;;;;;5085461;28;20611;-79
2023/06/04 07:15:30;;;;;;;4.03;2.17;;;;;;;;;;5083370;28;20491;-80
2023/06/04 07:17:58;;;;;;;3.93;2.70;;;;;;;;;;5086324;28;20459;-83
2023/06/04 07:20:26;;;;;;;2.50;1.20;;;;;;;;;;5088644;28;20448;-81
2023/06/04 07:22:54;;;;;;;2.40;1.07;;;;;;;;;;5087830;28;20775;-81
2023/06/04 07:25:23;;;;;;;1.90;0.90;;;;;;;;;;5089381;28;20456;-80
2023/06/04 07:27:52;;;;;;;2.73;1.00;;;;;;;;;;5088240;28;20442;-84
2023/06/04 07:30:19;;;;;;;2.40;1.10;;;;;;;;;;5080392;28;20457;-81
2023/06/04 07:32:47;;;;;;;1.70;0.73;;;;;;;;;;5079156;28;20614;-81
2023/06/04 07:35:15;;;;;;;1.93;0.83;;;;;;;;;;5079964;28;20444;-82
2023/06/04 07:37:47;;;;;;;2.10;1.00;;;;;;;;;;5082704;28;20499;-82
2023/06/04 07:40:18;;;;;;;2.07;0.83;;;;;;;;;;5089528;28;20441;-82
2023/06/04 07:42:46;;;;;;;2.80;1.10;;;;;;;;;;5087445;28;20465;-82
2023/06/04 07:45:15;;;;;;;2.00;0.90;;;;;;;;;;5086865;28;20441;-82
2023/06/04 07:47:42;;;;;;;2.00;0.90;;;;;;;;;;5088279;28;20481;-81
2023/06/04 07:50:11;;;;;;;2.13;1.17;;;;;;;;;;5080396;28;20449;-81
2023/06/04 07:52:46;;;;;;;2.77;1.27;;;;;;;;;;5079517;28;20484;-81
2023/06/04 07:55:14;;;;;;;2.20;1.20;;;;;;;;;;5080378;28;20452;-81
2023/06/04 07:57:41;;;;;;;2.77;0.90;;;;;;;;;;5082158;28;20449;-80
2023/06/04 08:00:09;;;;;;;3.70;1.27;;;;;;;;;;5079948;28;20457;-80
2023/06/04 08:02:38;;;;;;;4.03;1.70;;;;;;;;;;5084314;28;20455;-82
2023/06/04 08:05:06;;;;;;;8.03;0.97;;;;;;;;;;5083451;28;20467;-80
2023/06/04 08:07:35;;;;;;;2.13;0.97;;;;;;;;;;5087052;28;20485;-80
2023/06/04 08:10:06;;;;;;;2.40;1.00;;;;;;;;;;5080173;28;20456;-79
2023/06/04 08:12:33;;;;;;;1.80;0.90;;;;;;;;;;5082343;28;20488;-80
2023/06/04 08:15:01;;;;;;;2.67;0.70;;;;;;;;;;5082788;28;20859;-81
2023/06/04 08:17:28;;;;;;;2.07;0.77;;;;;;;;;;5082110;28;20465;-81
2023/06/04 08:19:57;;;;;;;3.93;1.10;;;;;;;;;;5083645;28;20453;-81
2023/06/04 08:22:25;;;;;;;4.67;1.30;;;;;;;;;;5081928;28;20452;-81
2023/06/04 08:24:52;;;;;;;2.67;1.10;;;;;;;;;;5084198;28;21026;-81
2023/06/04 08:27:20;;;;;;;3.30;1.00;;;;;;;;;;5081477;28;20441;-80
2023/06/04 08:29:47;;;;;;;3.23;0.77;;;;;;;;;;5081223;28;21028;-80
2023/06/04 08:32:15;;;;;;;2.20;0.80;;;;;;;;;;5081211;28;20971;-80
2023/06/04 08:34:43;;;;;;;2.73;0.90;;;;;;;;;;5082800;28;20449;-82
2023/06/04 08:37:16;;;;;;;2.70;1.00;;;;;;;;;;5085151;28;20877;-82
2023/06/04 08:39:44;;;;;;;2.20;1.10;;;;;;;;;;5081071;28;20459;-82
2023/06/04 08:42:19;;;;;;;4.43;1.03;;;;;;;;;;5080351;28;20456;-82
2023/06/04 08:44:48;;;;;;;3.40;1.30;;;;;;;;;;5083928;28;20456;-83
2023/06/04 08:47:17;;;;;;;2.70;1.23;;;;;;;;;;5084451;28;20564;-83
2023/06/04 08:49:48;;;;;;;2.17;1.00;;;;;;;;;;5080884;28;20522;-81
2023/06/04 08:52:21;;;;;;;2.00;0.73;;;;;;;;;;5075890;28;20484;-80
2023/06/04 08:54:56;;;;;;;3.67;1.13;;;;;;;;;;5077816;28;20875;-82
2023/06/04 08:57:26;;;;;;;2.30;0.80;;;;;;;;;;5081333;28;20472;-81
2023/06/04 08:59:55;;;;;;;2.00;0.90;;;;;;;;;;5082589;28;20449;-81
2023/06/04 09:02:24;;;;;;;2.20;0.87;;;;;;;;;;5080468;28;20511;-79
2023/06/04 09:04:55;;;;;;;4.57;1.40;;;;;;;;;;5082686;28;20526;-83
2023/06/04 09:07:30;;;;;;;5.57;1.40;;;;;;;;;;5080423;28;20453;-81
2023/06/04 09:10:05;;;;;;;2.30;1.00;;;;;;;;;;5080000;28;20866;-82
2023/06/04 09:12:33;;;;;;;2.40;1.00;;;;;;;;;;5079322;28;20484;-82
2023/06/04 09:15:01;;;;;;;2.20;0.90;;;;;;;;;;5080661;28;20492;-82
2023/06/04 09:17:29;;;;;;;2.77;0.97;;;;;;;;;;5081271;28;20493;-81
2023/06/04 09:19:56;;;;;;;2.60;1.00;;;;;;;;;;5080819;28;20437;-81
2023/06/04 09:22:36;;;;;;;3.00;0.90;;;;;;;;;;5083544;28;20457;-79
2023/06/04 09:25:06;;;;;;;2.47;1.20;;;;;;;;;;5077443;28;20441;-81
2023/06/04 09:27:42;;;;;;;4.13;1.30;;;;;;;;;;5075918;28;20563;-81
2023/06/04 09:32:57;;;;;;;2.03;0.80;;;;;;;;;;5081432;28;20507;-82
2023/06/04 09:35:30;;;;;;;2.13;1.00;;;;;;;;;;5086735;28;20518;-79
2023/06/04 09:37:59;;;;;;;6.03;1.03;;;;;;;;;;5091140;28;20453;-79
2023/06/04 09:40:26;;;;;;;1.87;0.70;;;;;;;;;;5083262;28;20547;-79
2023/06/04 09:42:55;;;;;;;2.93;0.80;;;;;;;;;;5071251;28;20484;-79
2023/06/04 09:45:29;;;;;;;2.20;0.80;;;;;;;;;;5068111;28;20453;-81
2023/06/04 09:47:56;;;;;;;2.40;1.00;;;;;;;;;;5082173;28;20488;-81
2023/06/04 09:50:27;;;;;;;2.30;0.93;;;;;;;;;;5067216;28;20461;-80
2023/06/04 09:52:57;;;;;;;2.43;0.90;;;;;;;;;;5084026;28;21126;-81
2023/06/04 09:55:27;;;;;;;3.00;1.27;;;;;;;;;;5089247;28;20488;-80
2023/06/04 09:57:56;;;;;;;3.03;1.70;;;;;;;;;;5080960;28;20550;-82
2023/06/04 10:00:28;;;;;;;2.10;1.00;;;;;;;;;;5085577;28;20760;-80
2023/06/04 10:03:00;;;;;;;2.67;0.90;;;;;;;;;;5089268;28;20564;-81
2023/06/04 10:05:30;;;;;;;3.40;0.97;;;;;;;;;;5072053;28;20437;-79
2023/06/04 10:08:07;;;;;;;2.57;0.97;;;;;;;;;;5085458;28;20441;-82
2023/06/04 10:10:42;;;;;;;4.27;1.00;;;;;;;;;;5074019;28;20445;-78
2023/06/04 10:13:20;;;;;;;2.37;0.90;;;;;;;;;;5085083;28;20568;-81
2023/06/04 10:15:57;;;;;;;2.43;0.93;;;;;;;;;;5080718;28;20483;-81
2023/06/04 10:18:30;;;;;;;3.50;1.23;;;;;;;;;;5071731;28;20510;-81
2023/06/04 10:21:00;;;;;;;2.90;1.10;;;;;;;;;;5078407;28;20435;-80
2023/06/04 10:23:29;;;;;;;2.63;1.00;;;;;;;;;;5078619;28;20433;-81
2023/06/04 10:25:58;;;;;;;3.60;1.00;;;;;;;;;;5073773;28;20438;-82
2023/06/04 10:28:26;;;;;;;3.20;1.10;;;;;;;;;;5078920;28;20441;-80
2023/06/04 10:30:58;;;;;;;3.43;1.00;;;;;;;;;;5089527;28;20461;-85
2023/06/04 10:33:28;;;;;;;2.30;0.87;;;;;;;;;;5067787;28;20500;-81
2023/06/04 10:35:56;;;;;;;3.07;0.90;;;;;;;;;;5080801;28;20453;-81
2023/06/04 10:38:23;;;;;;;2.87;1.10;;;;;;;;;;5079894;28;20489;-83
2023/06/04 10:40:51;;;;;;;4.40;1.23;;;;;;;;;;5082906;28;20449;-82
2023/06/04 10:43:20;;;;;;;3.10;1.20;;;;;;;;;;5083789;28;21150;-80
2023/06/04 10:45:48;;;;;;;4.93;0.97;;;;;;;;;;5082434;28;20731;-80
2023/06/04 10:48:15;;;;;;;2.37;0.73;;;;;;;;;;5083905;28;20456;-82
2023/06/04 10:50:50;;;;;;;3.00;1.17;;;;;;;;;;5082525;28;20457;-81
2023/06/04 10:53:22;;;;;;;3.23;1.30;;;;;;;;;;5085688;28;20484;-81
2023/06/04 10:55:52;;;;;;;2.23;1.00;;;;;;;;;;5082278;28;20515;-83
2023/06/04 10:58:21;;;;;;;4.37;1.20;;;;;;;;;;5066367;28;20453;-79
2023/06/04 11:00:49;;;;;;;2.47;0.97;;;;;;;;;;5087982;28;20483;-80
2023/06/04 11:03:20;;;;;;;3.10;1.23;;;;;;;;;;5090703;28;20448;-80
2023/06/04 11:05:50;;;;;;;3.00;0.97;;;;;;;;;;5087457;28;20468;-80
2023/06/04 11:08:28;;;;;;;2.60;0.77;;;;;;;;;;5087345;28;20449;-82
2023/06/04 11:10:55;;;;;;;2.80;1.10;;;;;;;;;;5083151;28;20464;-82
2023/06/04 11:13:26;;;;;;;4.90;1.03;;;;;;;;;;5081934;28;20500;-82
2023/06/04 11:15:53;;;;;;;4.17;1.60;;;;;;;;;;5093434;28;20460;-80
2023/06/04 11:18:23;;;;;;;3.53;1.20;;;;;;;;;;5083521;28;20480;-79
2023/06/04 11:20:52;;;;;;;4.50;0.90;;;;;;;;;;5084125;28;20465;-83
2023/06/04 11:23:19;;;;;;;2.73;1.10;;;;;;;;;;5084336;28;20453;-81
2023/06/04 11:25:46;;;;;;;3.20;1.17;;;;;;;;;;5082930;28;20455;-81
2023/06/04 11:28:18;;;;;;;2.40;0.90;;;;;;;;;;5079652;28;20996;-82
2023/06/04 11:30:57;;;;;;;2.40;1.10;;;;;;;;;;5078204;28;20491;-79
2023/06/04 11:33:28;;;;;;;2.47;0.90;;;;;;;;;;5079668;28;20523;-79
2023/06/04 11:35:56;;;;;;;2.50;1.00;;;;;;;;;;5068555;28;20449;-81
2023/06/04 11:38:23;;;;;;;2.40;1.10;;;;;;;;;;5071249;28;20449;-79
2023/06/04 11:40:58;;;;;;;4.73;1.00;;;;;;;;;;5077189;28;20445;-78
2023/06/04 11:43:26;;;;;;;2.80;1.03;;;;;;;;;;5075430;28;20437;-81
2023/06/04 11:45:58;;;;;;;6.50;1.20;;;;;;;;;;5081407;28;20452;-84
2023/06/04 11:48:27;;;;;;;2.77;1.33;;;;;;;;;;5076725;28;20879;-82
2023/06/04 11:50:55;;;;;;;7.50;1.50;;;;;;;;;;5059039;28;20437;-83
2023/06/04 11:53:24;;;;;;;3.10;1.30;;;;;;;;;;5074889;28;20489;-83
2023/06/04 11:55:51;;;;;;;3.73;1.20;;;;;;;;;;5076418;28;20450;-83
2023/06/04 11:58:20;;;;;;;2.60;0.90;;;;;;;;;;5076302;28;20448;-82
2023/06/04 12:00:52;;;;;;;3.70;1.20;;;;;;;;;;5077597;28;20519;-81
2023/06/04 12:03:20;;;;;;;2.90;0.90;;;;;;;;;;5079179;28;20525;-81
2023/06/04 12:05:48;;;;;;;6.57;1.10;;;;;;;;;;5069445;28;20472;-79
2023/06/04 12:08:15;;;;;;;3.10;1.10;;;;;;;;;;5079406;28;20463;-81
2023/06/04 12:10:45;;;;;;;6.90;1.30;;;;;;;;;;5079445;28;20445;-80
2023/06/04 12:13:13;;;;;;;3.87;1.20;;;;;;;;;;5080941;28;20481;-82
2023/06/04 12:18:12;;;;;;;2.97;1.57;;;;;;;;;;5046391;28;20509;-82
2023/06/04 12:20:42;;;;;;;2.63;0.90;;;;;;;;;;5055970;28;20527;-83
2023/06/04 12:23:09;;;;;;;6.03;1.50;;;;;;;;;;5062197;28;20730;-83
2023/06/04 12:25:38;;;;;;;10.30;7.03;;;;;;;;;;5071358;28;20453;-83
2023/06/04 12:28:07;;;;;;;4.67;1.40;;;;;;;;;;5062390;28;20457;-80
2023/06/04 12:30:38;;;;;;;4.20;1.67;;;;;;;;;;5059034;28;20544;-80
2023/06/04 12:33:06;;;;;;;3.53;0.90;;;;;;;;;;5059131;28;20540;-80
2023/06/04 12:35:35;;;;;;;2.07;1.03;;;;;;;;;;5062078;28;20527;-82
2023/06/04 12:38:08;;;;;;;2.77;1.20;;;;;;;;;;5060169;28;20568;-83
2023/06/04 12:40:36;;;;;;;3.10;1.23;;;;;;;;;;5059219;28;20493;-84
2023/06/04 12:43:03;;;;;;;2.30;1.07;;;;;;;;;;5059330;28;20457;-83
2023/06/04 12:45:33;;;;;;;4.50;1.00;;;;;;;;;;5059834;28;20474;-84
2023/06/04 12:48:02;;;;;;;4.10;1.30;;;;;;;;;;5058544;28;20458;-83
2023/06/04 12:50:35;;;;;;;3.90;1.00;;;;;;;;;;5058170;28;20856;-81
2023/06/04 12:55:51;;;;;;;4.13;1.43;;;;;;;;;;5068120;28;20453;-82
2023/06/04 12:58:23;;;;;;;2.70;1.10;;;;;;;;;;5057293;28;20449;-80
2023/06/04 13:00:53;;;;;;;3.00;1.10;;;;;;;;;;5067476;28;20457;-79
2023/06/04 13:03:21;;;;;;;3.63;1.23;;;;;;;;;;5066030;28;20447;-79
2023/06/04 13:05:48;;;;;;;2.97;1.30;;;;;;;;;;5072627;28;20573;-79
2023/06/04 13:08:16;;;;;;;2.67;1.17;;;;;;;;;;5059419;28;20454;-79
2023/06/04 13:10:44;;;;;;;3.30;1.20;;;;;;;;;;5043710;28;20513;-79
2023/06/04 13:13:15;;;;;;;3.27;1.10;;;;;;;;;;5058489;28;20482;-79
2023/06/04 13:15:43;;;;;;;3.20;1.10;;;;;;;;;;5065012;28;20751;-81
2023/06/04 13:18:12;;;;;;;2.20;0.90;;;;;;;;;;5061734;28;20498;-79
2023/06/04 13:20:41;;;;;;;4.70;1.00;;;;;;;;;;5062190;28;20492;-79
2023/06/04 13:23:20;;;;;;;5.23;1.03;;;;;;;;;;5069277;28;20485;-86
2023/06/04 13:25:47;;;;;;;3.10;1.40;;;;;;;;;;5066593;28;20745;-83
2023/06/04 13:28:17;;;;;;;3.80;1.40;;;;;;;;;;5066171;28;20692;-81
2023/06/04 13:30:48;;;;;;;2.83;1.13;;;;;;;;;;5072468;28;20461;-79
2023/06/04 13:33:16;;;;;;;2.57;1.10;;;;;;;;;;5088763;28;20547;-80
2023/06/04 13:35:44;;;;;;;2.60;1.10;;;;;;;;;;5087637;28;20460;-80
2023/06/04 13:38:12;;;;;;;8.37;1.17;;;;;;;;;;5092502;28;20473;-78
2023/06/04 13:40:39;;;;;;;2.63;1.10;;;;;;;;;;5094730;28;20449;-83
2023/06/04 13:43:08;;;;;;;2.13;0.90;;;;;;;;;;5090861;28;20485;-80
2023/06/04 13:45:37;;;;;;;3.33;1.27;;;;;;;;;;5085464;28;20455;-80
2023/06/04 13:48:07;;;;;;;3.40;1.83;;;;;;;;;;5086991;28;20461;-80
2023/06/04 13:50:35;;;;;;;2.93;1.23;;;;;;;;;;5087420;28;20545;-83
2023/06/04 13:53:03;;;;;;;3.33;1.47;;;;;;;;;;5087040;28;20503;-81
2023/06/04 13:55:31;;;;;;;2.90;1.13;;;;;;;;;;5084243;28;20449;-82
2023/06/04 13:58:01;;;;;;;4.20;1.53;;;;;;;;;;5085326;28;20503;-82
2023/06/04 14:00:29;;;;;;;3.73;1.60;;;;;;;;;;5081145;28;20464;-80
2023/06/04 14:02:58;;;;;;;3.50;1.57;;;;;;;;;;5085464;28;20560;-81
2023/06/04 14:05:43;;;;;;;4.80;1.40;;;;;;;;;;5076719;28;20446;-82
2023/06/04 14:08:12;;;;;;;4.40;1.40;;;;;;;;;;5068346;28;20450;-81
2023/06/04 14:10:40;;;;;;;3.33;1.20;;;;;;;;;;5069316;28;20458;-81
2023/06/04 14:13:08;;;;;;;3.37;1.20;;;;;;;;;;5070355;28;21078;-80
2023/06/04 14:15:35;;;;;;;5.80;1.53;;;;;;;;;;5072055;28;20454;-83
2023/06/04 14:18:04;;;;;;;4.30;1.37;;;;;;;;;;5065258;28;20493;-83
2023/06/04 14:20:32;;;;;;;2.53;1.27;;;;;;;;;;5052054;28;20470;-83
2023/06/04 14:23:00;;;;;;;5.10;1.40;;;;;;;;;;5061617;28;20431;-84
2023/06/04 14:25:28;;;;;;;2.90;1.20;;;;;;;;;;5065136;28;20464;-82
2023/06/04 14:27:56;;;;;;;2.63;1.17;;;;;;;;;;5062951;28;20469;-82
2023/06/04 14:30:23;;;;;;;8.03;2.20;;;;;;;;;;5063993;28;20481;-82
2023/06/04 14:32:50;;;;;;;4.27;1.50;;;;;;;;;;5062759;28;20492;-82
2023/06/04 14:35:19;;;;;;;4.60;1.53;;;;;;;;;;5059929;28;20474;-84
2023/06/04 14:37:46;;;;;;;3.80;1.70;;;;;;;;;;5060465;28;20441;-83
2023/06/04 14:40:16;;;;;;;3.30;1.77;;;;;;;;;;5062396;28;20452;-83
2023/06/04 14:42:44;;;;;;;4.20;1.10;;;;;;;;;;5060257;28;20460;-81
2023/06/04 14:45:12;;;;;;;3.30;1.43;;;;;;;;;;5060361;28;20497;-80
2023/06/04 14:47:39;;;;;;;3.57;1.47;;;;;;;;;;5061950;28;20861;-79
2023/06/04 14:50:07;;;;;;;7.27;1.43;;;;;;;;;;5055764;28;20461;-80
2023/06/04 14:52:36;;;;;;;2.83;1.30;;;;;;;;;;5061078;28;20481;-84
2023/06/04 14:55:03;;;;;;;3.07;1.20;;;;;;;;;;5062877;28;20489;-81
2023/06/04 14:57:31;;;;;;;3.90;1.00;;;;;;;;;;5062893;28;20489;-79
2023/06/04 14:59:58;;;;;;;2.80;1.13;;;;;;;;;;5043421;28;20446;-80
2023/06/04 15:02:25;;;;;;;2.90;1.50;;;;;;;;;;5043263;28;20521;-80